createdAt,value
2019-06-27T00:02:23.213Z,100077.41
2019-06-27T00:04:52.088Z,100079.59
2019-06-27T00:07:20.823Z,100084.05
2019-06-27T00:09:49.558Z,100075.73
2019-06-27T00:12:18.360Z,100076.97
2019-06-27T00:14:47.087Z,100077.20
2019-06-27T00:17:15.847Z,100075.58
2019-06-27T00:19:44.640Z,100075.49
2019-06-27T00:22:14.663Z,100075.20
2019-06-27T00:24:43.401Z,100075.14
2019-06-27T00:27:12.270Z,100071.06
2019-06-27T00:29:41.005Z,100071.33
2019-06-27T00:32:09.737Z,100072.17
2019-06-27T00:34:38.516Z,100070.42
2019-06-27T00:37:07.251Z,100065.98
2019-06-27T00:39:35.987Z,100072.50
2019-06-27T00:42:04.875Z,100069.00
2019-06-27T00:44:33.612Z,100071.43
2019-06-27T00:47:02.345Z,100070.88
2019-06-27T00:49:31.110Z,100070.95
2019-06-27T00:51:59.907Z,100066.67
2019-06-27T00:54:28.644Z,100067.35
2019-06-27T00:57:13.015Z,100067.70
2019-06-27T00:59:27.924Z,100055.98
2019-06-27T01:01:56.664Z,100061.42
2019-06-27T01:04:25.565Z,100059.19
2019-06-27T01:06:54.302Z,100061.52
2019-06-27T01:09:23.031Z,100056.30
2019-06-27T01:11:51.837Z,100058.54
2019-06-27T01:14:20.572Z,100059.31
2019-06-27T01:16:49.325Z,100054.00
2019-06-27T01:19:18.174Z,100054.91
2019-06-27T01:21:46.910Z,100048.62
2019-06-27T01:24:15.749Z,100046.39
2019-06-27T01:26:44.525Z,100048.53
2019-06-27T01:29:13.265Z,100051.41
2019-06-27T01:31:42.001Z,100054.62
2019-06-27T01:34:10.904Z,100058.30
2019-06-27T01:36:39.639Z,100053.31
2019-06-27T01:39:08.472Z,100052.15
2019-06-27T01:41:37.371Z,100046.38
2019-06-27T01:44:07.687Z,100047.64
2019-06-27T01:46:36.412Z,100039.58
2019-06-27T01:49:05.273Z,100042.81
2019-06-27T01:51:34.016Z,100040.61
2019-06-27T01:54:02.765Z,100042.81
2019-06-27T01:56:31.962Z,100041.13
2019-06-27T01:59:00.697Z,100044.34
2019-06-27T02:01:29.429Z,100041.61
2019-06-27T02:03:58.420Z,100040.73
2019-06-27T02:06:27.149Z,100046.82
2019-06-27T02:08:55.882Z,100047.72
2019-06-27T02:11:24.673Z,100045.84
2019-06-27T02:13:53.412Z,100046.63
2019-06-27T02:16:22.149Z,100045.49
2019-06-27T02:18:51.023Z,100040.73
2019-06-27T02:21:19.754Z,100047.17
2019-06-27T02:23:48.489Z,100047.05
2019-06-27T02:26:17.368Z,100046.50
2019-06-27T02:28:46.107Z,100042.33
2019-06-27T02:31:14.844Z,100041.36
2019-06-27T02:33:43.733Z,100046.38
2019-06-27T02:36:12.471Z,100047.59
2019-06-27T02:38:41.204Z,100045.28
2019-06-27T02:41:10.072Z,100044.50
2019-06-27T02:43:38.811Z,100042.03
2019-06-27T02:46:07.573Z,100043.78
2019-06-27T02:48:36.447Z,100043.78
2019-06-27T02:51:05.179Z,100041.13
2019-06-27T02:53:33.916Z,100042.69
2019-06-27T02:56:02.855Z,100050.37
2019-06-27T02:58:32.705Z,100041.17
2019-06-27T03:01:01.607Z,100041.37
2019-06-27T03:03:30.569Z,100042.80
2019-06-27T03:05:59.410Z,100039.10
2019-06-27T03:08:28.148Z,100040.30
2019-06-27T03:10:57.033Z,100041.23
2019-06-27T03:13:25.775Z,100039.10
2019-06-27T03:15:54.507Z,100035.47
2019-06-27T03:18:23.407Z,100033.85
2019-06-27T03:20:52.152Z,100041.82
2019-06-27T03:23:20.891Z,100042.20
2019-06-27T03:25:49.966Z,100039.67
2019-06-27T03:28:18.731Z,100040.45
2019-06-27T03:30:47.471Z,100042.08
2019-06-27T03:33:16.338Z,100034.56
2019-06-27T03:35:45.076Z,100028.92
2019-06-27T03:38:13.819Z,100026.44
2019-06-27T03:40:42.634Z,100026.73
2019-06-27T03:43:11.374Z,100023.43
2019-06-27T03:45:40.104Z,100025.59
2019-06-27T03:48:08.936Z,100023.46
2019-06-27T03:50:37.717Z,100027.22
2019-06-27T03:53:06.475Z,100028.34
2019-06-27T03:55:35.227Z,100032.22
2019-06-27T03:58:03.975Z,100023.58
2019-06-27T04:00:34.405Z,100034.08
2019-06-27T04:03:03.498Z,100027.85
2019-06-27T04:05:32.238Z,100023.45
2019-06-27T04:08:00.969Z,100027.85
2019-06-27T04:10:29.851Z,100029.84
2019-06-27T04:12:58.596Z,100024.38
2019-06-27T04:15:27.312Z,100030.44
2019-06-27T04:17:56.188Z,100032.83
2019-06-27T04:20:25.047Z,100026.13
2019-06-27T04:22:53.767Z,100023.11
2019-06-27T04:25:22.628Z,100029.63
2019-06-27T04:27:51.394Z,100028.34
2019-06-27T04:30:20.392Z,100031.23
2019-06-27T04:32:49.181Z,100027.96
2019-06-27T04:35:17.924Z,100026.08
2019-06-27T04:37:46.660Z,100027.45
2019-06-27T04:40:15.532Z,100028.73
2019-06-27T04:42:44.265Z,100032.88
2019-06-27T04:45:13.009Z,100028.58
2019-06-27T04:47:41.998Z,100037.88
2019-06-27T04:50:10.718Z,100037.15
2019-06-27T04:52:39.461Z,100031.16
2019-06-27T04:55:08.353Z,100032.67
2019-06-27T04:57:37.062Z,100025.22
2019-06-27T05:00:06.706Z,100028.91
2019-06-27T05:02:35.480Z,100022.55
2019-06-27T05:05:05.112Z,100026.33
2019-06-27T05:07:33.857Z,100029.10
2019-06-27T05:10:02.736Z,100024.61
2019-06-27T05:12:31.471Z,100032.97
2019-06-27T05:15:00.216Z,100033.83
2019-06-27T05:17:28.996Z,100030.55
2019-06-27T05:19:57.722Z,100026.75
2019-06-27T05:22:26.455Z,100027.74
2019-06-27T05:24:55.330Z,100026.19
2019-06-27T05:27:24.055Z,100024.67
2019-06-27T05:30:08.121Z,100036.48
2019-06-27T05:32:23.290Z,100030.22
2019-06-27T05:34:52.028Z,100034.45
2019-06-27T05:37:20.759Z,100035.64
2019-06-27T05:39:49.837Z,100031.80
2019-06-27T05:42:18.566Z,100033.72
2019-06-27T05:44:47.399Z,100029.70
2019-06-27T05:47:17.632Z,100025.48
2019-06-27T05:49:46.357Z,100022.42
2019-06-27T05:52:15.076Z,100021.46
2019-06-27T05:54:44.011Z,100019.94
2019-06-27T05:57:12.725Z,100023.73
2019-06-27T05:59:41.441Z,100018.94
2019-06-27T06:02:10.243Z,100015.88
2019-06-27T06:04:39.040Z,100010.95
2019-06-27T06:07:07.761Z,100010.00
2019-06-27T06:09:36.646Z,100010.16
2019-06-27T06:12:05.375Z,100002.09
2019-06-27T06:14:34.099Z,100001.48
2019-06-27T06:17:02.962Z,99998.36
2019-06-27T06:19:31.664Z,100001.55
2019-06-27T06:22:00.408Z,99986.01
2019-06-27T06:24:29.188Z,99986.01
2019-06-27T06:26:57.905Z,99992.99
2019-06-27T06:29:26.629Z,100000.48
2019-06-27T06:31:55.484Z,99994.43
2019-06-27T06:34:24.402Z,99989.95
2019-06-27T06:36:53.130Z,99992.63
2019-06-27T06:39:21.996Z,99986.11
2019-06-27T06:41:50.852Z,99986.41
2019-06-27T06:44:19.583Z,99974.94
2019-06-27T06:46:48.407Z,99978.05
2019-06-27T06:49:17.175Z,99975.00
2019-06-27T06:51:45.892Z,99974.88
2019-06-27T06:54:14.731Z,99972.23
2019-06-27T06:56:43.462Z,99968.82
2019-06-27T06:59:12.216Z,99964.22
2019-06-27T07:01:41.131Z,99965.52
2019-06-27T07:04:09.858Z,99960.19
2019-06-27T07:06:38.566Z,99953.93
2019-06-27T07:09:07.543Z,99952.67
2019-06-27T07:11:36.263Z,99952.89
2019-06-27T07:14:05.231Z,99950.35
2019-06-27T07:16:34.087Z,99945.70
2019-06-27T07:19:02.881Z,99936.82
2019-06-27T07:21:31.619Z,99936.66
2019-06-27T07:24:00.489Z,99931.97
2019-06-27T07:26:29.323Z,99932.97
2019-06-27T07:28:58.022Z,99932.41
2019-06-27T07:31:26.919Z,99933.39
2019-06-27T07:33:55.638Z,99925.87
2019-06-27T07:36:24.505Z,99926.11
2019-06-27T07:38:53.355Z,99919.19
2019-06-27T07:41:22.078Z,99919.08
2019-06-27T07:43:50.793Z,99920.23
2019-06-27T07:46:25.464Z,99918.59
2019-06-27T07:48:50.113Z,99910.91
2019-06-27T07:51:18.827Z,99905.77
2019-06-27T07:53:47.713Z,99899.11
2019-06-27T07:56:16.435Z,99896.05
2019-06-27T07:58:45.153Z,99890.46
2019-06-27T08:01:14.016Z,99892.19
2019-06-27T08:03:42.736Z,99896.29
2019-06-27T08:06:11.470Z,99890.18
2019-06-27T08:08:40.340Z,99891.74
2019-06-27T08:11:09.072Z,99888.61
2019-06-27T08:13:37.792Z,99892.23
2019-06-27T08:16:06.602Z,99887.48
2019-06-27T08:18:36.510Z,99882.16
2019-06-27T08:21:06.437Z,99886.94
2019-06-27T08:23:41.671Z,99883.58
2019-06-27T08:26:05.761Z,99880.31
2019-06-27T08:28:36.084Z,99875.07
2019-06-27T08:31:04.874Z,99876.47
2019-06-27T08:33:33.594Z,99870.09
2019-06-27T08:36:02.334Z,99864.84
2019-06-27T08:38:31.106Z,99869.98
2019-06-27T08:40:59.832Z,99868.48
2019-06-27T08:43:28.550Z,99866.84
2019-06-27T08:45:57.318Z,99866.19
2019-06-27T08:48:26.042Z,99857.99
2019-06-27T08:50:54.753Z,99852.94
2019-06-27T08:53:23.655Z,99852.96
2019-06-27T08:55:52.849Z,99845.81
2019-06-27T08:58:21.575Z,99838.41
2019-06-27T09:00:50.444Z,99844.28
2019-06-27T09:03:19.163Z,99836.09
2019-06-27T09:05:47.896Z,99838.34
2019-06-27T09:08:16.670Z,99833.96
2019-06-27T09:10:45.985Z,99832.41
2019-06-27T09:13:14.717Z,99822.67
2019-06-27T09:15:43.474Z,99822.02
2019-06-27T09:18:12.199Z,99814.88
2019-06-27T09:20:40.914Z,99817.13
2019-06-27T09:23:09.670Z,99815.32
2019-06-27T09:25:38.387Z,99812.07
2019-06-27T09:28:07.110Z,99810.47
2019-06-27T09:30:36.083Z,99802.95
2019-06-27T09:33:04.895Z,99804.57
2019-06-27T09:35:33.628Z,99805.15
2019-06-27T09:38:02.555Z,99797.58
2019-06-27T09:40:31.394Z,99788.22
2019-06-27T09:43:00.152Z,99788.97
2019-06-27T09:45:29.086Z,99786.42
2019-06-27T09:47:57.797Z,99782.48
2019-06-27T09:50:26.538Z,99778.36
2019-06-27T09:52:55.396Z,99779.54
2019-06-27T09:55:24.110Z,99772.61
2019-06-27T09:57:52.837Z,99766.38
2019-06-27T10:00:22.914Z,99763.66
2019-06-27T10:02:51.631Z,99762.19
2019-06-27T10:05:20.355Z,99755.50
2019-06-27T10:07:49.244Z,99754.77
2019-06-27T10:10:18.184Z,99747.65
2019-06-27T10:12:46.905Z,99747.53
2019-06-27T10:15:16.173Z,99740.73
2019-06-27T10:17:44.877Z,99731.52
2019-06-27T10:20:13.899Z,99729.38
2019-06-27T10:22:42.676Z,99728.19
2019-06-27T10:25:12.091Z,99720.63
2019-06-27T10:27:40.818Z,99718.08
2019-06-27T10:30:10.609Z,99714.30
2019-06-27T10:32:39.320Z,99709.76
2019-06-27T10:35:08.741Z,99716.41
2019-06-27T10:37:39.872Z,99707.34
2019-06-27T10:40:09.192Z,99704.45
2019-06-27T10:42:38.014Z,99694.95
2019-06-27T10:45:07.890Z,99696.93
2019-06-27T10:47:36.613Z,99692.09
2019-06-27T10:50:07.341Z,99680.62
2019-06-27T10:52:36.119Z,99677.90
2019-06-27T10:55:05.543Z,99677.59
2019-06-27T10:57:34.285Z,99669.61
2019-06-27T11:00:04.614Z,99666.73
2019-06-27T11:02:33.562Z,99669.45
2019-06-27T11:05:02.278Z,99667.48
2019-06-27T11:07:34.184Z,99659.45
2019-06-27T11:10:03.003Z,99660.08
2019-06-27T11:12:31.717Z,99649.86
2019-06-27T11:15:00.535Z,99649.27
2019-06-27T11:17:29.249Z,99652.27
2019-06-27T11:19:57.975Z,99653.00
2019-06-27T11:22:26.851Z,99637.09
2019-06-27T11:24:55.601Z,99633.97
2019-06-27T11:27:27.242Z,99635.13
2019-06-27T11:29:55.045Z,99628.52
2019-06-27T11:32:26.853Z,99623.34
2019-06-27T11:34:55.577Z,99624.68
2019-06-27T11:37:24.470Z,99622.77
2019-06-27T11:39:53.202Z,99616.48
2019-06-27T11:42:21.935Z,99614.92
2019-06-27T11:44:50.760Z,99616.34
2019-06-27T11:47:19.560Z,99609.79
2019-06-27T11:49:48.278Z,99604.95
2019-06-27T11:52:17.129Z,99607.40
2019-06-27T11:54:45.876Z,99599.02
2019-06-27T11:57:14.621Z,99597.86
2019-06-27T11:59:43.401Z,99590.17
2019-06-27T12:02:12.113Z,99589.65
2019-06-27T12:04:40.842Z,99587.01
2019-06-27T12:07:11.239Z,99583.48
2019-06-27T12:09:39.937Z,99586.92
2019-06-27T12:12:08.656Z,99576.55
2019-06-27T12:14:37.518Z,99576.23
2019-06-27T12:17:06.388Z,99566.89
2019-06-27T12:19:35.107Z,99558.37
2019-06-27T12:22:03.985Z,99557.32
2019-06-27T12:24:32.701Z,99555.39
2019-06-27T12:27:01.432Z,99546.48
2019-06-27T12:29:30.383Z,99548.11
2019-06-27T12:31:59.137Z,99542.86
2019-06-27T12:34:27.858Z,99544.94
2019-06-27T12:36:56.810Z,99541.42
2019-06-27T12:39:25.639Z,99541.66
2019-06-27T12:41:54.364Z,99537.02
2019-06-27T12:44:23.349Z,99540.14
2019-06-27T12:46:52.072Z,99531.52
2019-06-27T12:49:20.788Z,99526.83
2019-06-27T12:51:49.718Z,99526.63
2019-06-27T12:54:18.486Z,99513.66
2019-06-27T12:56:47.214Z,99512.82
2019-06-27T12:59:15.986Z,99513.45
2019-06-27T13:01:44.708Z,99512.22
2019-06-27T13:04:22.859Z,99504.91
2019-06-27T13:06:43.935Z,99502.65
2019-06-27T13:09:12.661Z,99500.79
2019-06-27T13:11:41.371Z,99499.38
2019-06-27T13:14:10.626Z,99497.95
2019-06-27T13:16:39.415Z,99498.91
2019-06-27T13:19:08.165Z,99486.47
2019-06-27T13:21:37.236Z,99484.70
2019-06-27T13:24:05.954Z,99484.19
2019-06-27T13:26:34.765Z,99474.19
2019-06-27T13:29:03.749Z,99472.72
2019-06-27T13:31:32.460Z,99460.13
2019-06-27T13:34:01.181Z,99468.89
2019-06-27T13:36:33.065Z,99459.52
2019-06-27T13:39:00.387Z,99461.27
2019-06-27T13:41:29.109Z,99459.29
2019-06-27T13:43:57.914Z,99456.34
2019-06-27T13:46:26.687Z,99452.02
2019-06-27T13:48:55.462Z,99449.75
2019-06-27T13:51:24.247Z,99443.80
2019-06-27T13:53:52.967Z,99441.68
2019-06-27T13:56:21.693Z,99434.73
2019-06-27T13:58:50.467Z,99434.66
2019-06-27T14:01:19.189Z,99429.56
2019-06-27T14:03:49.790Z,99426.82
2019-06-27T14:06:18.681Z,99420.27
2019-06-27T14:08:47.394Z,99415.33
2019-06-27T14:11:16.108Z,99424.63
2019-06-27T14:13:45.022Z,99414.74
2019-06-27T14:16:13.748Z,99406.35
2019-06-27T14:18:42.467Z,99404.18
2019-06-27T14:21:11.355Z,99396.08
2019-06-27T14:23:40.145Z,99396.00
2019-06-27T14:26:08.867Z,99387.81
2019-06-27T14:28:37.742Z,99379.87
2019-06-27T14:31:06.458Z,99374.70
2019-06-27T14:33:35.176Z,99368.23
2019-06-27T14:36:04.065Z,99366.55
2019-06-27T14:38:32.798Z,99362.12
2019-06-27T14:41:01.510Z,99365.90
2019-06-27T14:43:30.399Z,99350.42
2019-06-27T14:45:59.124Z,99351.53
2019-06-27T14:48:27.843Z,99350.02
2019-06-27T14:50:56.707Z,99349.69
2019-06-27T14:53:25.426Z,99339.11
2019-06-27T14:55:54.180Z,99338.60
2019-06-27T14:58:22.952Z,99332.20
2019-06-27T15:00:52.050Z,99325.19
2019-06-27T15:03:20.785Z,99326.58
2019-06-27T15:05:49.634Z,99318.67
2019-06-27T15:08:18.345Z,99313.94
2019-06-27T15:10:47.074Z,99314.98
2019-06-27T15:13:15.924Z,99306.16
2019-06-27T15:15:44.645Z,99308.08
2019-06-27T15:18:16.543Z,99306.73
2019-06-27T15:20:43.879Z,99304.19
2019-06-27T15:23:12.604Z,99297.89
2019-06-27T15:25:41.333Z,99292.66
2019-06-27T15:28:10.119Z,99285.18
2019-06-27T15:30:38.841Z,99290.58
2019-06-27T15:33:08.520Z,99284.66
2019-06-27T15:35:50.847Z,99280.33
2019-06-27T15:38:07.751Z,99271.00
2019-06-27T15:40:36.519Z,99275.60
2019-06-27T15:43:05.666Z,99272.91
2019-06-27T15:45:34.392Z,99272.58
2019-06-27T15:48:03.118Z,99268.22
2019-06-27T15:50:32.093Z,99262.17
2019-06-27T15:53:00.807Z,99259.58
2019-06-27T15:55:29.523Z,99259.19
2019-06-27T15:57:58.496Z,99253.69
2019-06-27T16:00:27.307Z,99251.86
2019-06-27T16:02:56.044Z,99253.63
2019-06-27T16:05:24.924Z,99249.59
2019-06-27T16:07:53.801Z,99248.45
2019-06-27T16:10:23.622Z,99247.53
2019-06-27T16:12:52.579Z,99244.56
2019-06-27T16:15:21.399Z,99247.86
2019-06-27T16:17:50.122Z,99247.47
2019-06-27T16:20:20.651Z,99238.47
2019-06-27T16:22:49.383Z,99248.92
2019-06-27T16:25:18.101Z,99246.83
2019-06-27T16:27:46.921Z,99248.98
2019-06-27T16:30:16.552Z,99242.95
2019-06-27T16:32:45.275Z,99241.20
2019-06-27T16:35:14.534Z,99243.89
2019-06-27T16:37:43.258Z,99240.60
2019-06-27T16:40:12.301Z,99237.91
2019-06-27T16:42:41.078Z,99235.00
2019-06-27T16:45:10.495Z,99242.95
2019-06-27T16:47:39.215Z,99238.42
2019-06-27T16:50:09.286Z,99235.98
2019-06-27T16:52:38.114Z,99239.57
2019-06-27T16:55:07.117Z,99232.91
2019-06-27T16:57:35.970Z,99230.60
2019-06-27T17:00:05.202Z,99221.54
2019-06-27T17:02:33.921Z,99228.45
2019-06-27T17:05:02.802Z,99228.08
2019-06-27T17:07:31.515Z,99215.79
2019-06-27T17:10:00.242Z,99210.16
2019-06-27T17:12:29.118Z,99211.36
2019-06-27T17:14:57.838Z,99209.47
2019-06-27T17:17:26.562Z,99212.52
2019-06-27T17:19:55.342Z,99206.41
2019-06-27T17:22:24.054Z,99210.14
2019-06-27T17:24:52.776Z,99211.19
2019-06-27T17:27:21.797Z,99209.30
2019-06-27T17:29:50.506Z,99213.34
2019-06-27T17:32:19.249Z,99209.56
2019-06-27T17:34:48.278Z,99210.55
2019-06-27T17:37:18.730Z,99207.06
2019-06-27T17:39:47.449Z,99212.86
2019-06-27T17:42:16.207Z,99209.95
2019-06-27T17:44:44.924Z,99206.19
2019-06-27T17:47:13.658Z,99209.11
2019-06-27T17:49:42.545Z,99204.69
2019-06-27T17:52:11.267Z,99203.42
2019-06-27T17:54:39.985Z,99204.44
2019-06-27T17:57:08.766Z,99204.47
2019-06-27T17:59:37.482Z,99209.51
2019-06-27T18:02:06.199Z,99201.63
2019-06-27T18:04:34.987Z,99205.63
2019-06-27T18:07:13.690Z,99205.52
2019-06-27T18:09:34.168Z,99208.87
2019-06-27T18:12:04.124Z,99217.73
2019-06-27T18:14:32.860Z,99215.96
2019-06-27T18:17:01.579Z,99222.76
2019-06-27T18:19:30.487Z,99219.06
2019-06-27T18:21:59.213Z,99210.70
2019-06-27T18:24:27.939Z,99218.97
2019-06-27T18:26:56.986Z,99219.58
2019-06-27T18:29:25.714Z,99223.52
2019-06-27T18:31:54.455Z,99224.16
2019-06-27T18:34:23.232Z,99229.84
2019-06-27T18:36:51.941Z,99240.33
2019-06-27T18:39:20.680Z,99230.20
2019-06-27T18:41:49.583Z,99241.39
2019-06-27T18:44:18.406Z,99239.70
2019-06-27T18:46:47.320Z,99233.33
2019-06-27T18:49:16.168Z,99234.70
2019-06-27T18:51:44.899Z,99238.33
2019-06-27T18:54:13.622Z,99240.02
2019-06-27T18:56:42.489Z,99243.22
2019-06-27T18:59:11.213Z,99244.30
2019-06-27T19:01:39.947Z,99254.66
2019-06-27T19:04:08.840Z,99258.23
2019-06-27T19:06:37.574Z,99258.23
2019-06-27T19:09:06.695Z,99258.81
2019-06-27T19:11:35.564Z,99259.95
2019-06-27T19:14:04.298Z,99278.02
2019-06-27T19:16:33.017Z,99287.52
2019-06-27T19:19:21.809Z,99287.52
2019-06-27T19:21:57.656Z,99294.28
2019-06-27T19:24:28.009Z,99290.14
2019-06-27T19:26:57.439Z,99290.14
2019-06-27T19:29:26.167Z,99294.19
2019-06-27T19:31:55.010Z,99292.55
2019-06-27T19:34:23.748Z,99292.55
2019-06-27T19:36:52.547Z,99300.39
2019-06-27T19:39:21.510Z,99305.92
2019-06-27T19:41:50.254Z,99311.60
2019-06-27T19:44:18.978Z,99315.91
2019-06-27T19:46:47.775Z,99316.00
2019-06-27T19:49:16.518Z,99310.30
2019-06-27T19:51:45.252Z,99310.75
2019-06-27T19:54:15.549Z,99306.34
2019-06-27T19:56:44.288Z,99310.70
2019-06-27T19:59:13.014Z,99306.30
2019-06-27T20:01:41.795Z,99311.11
2019-06-27T20:04:10.525Z,99306.74
2019-06-27T20:06:39.246Z,99306.13
2019-06-27T20:09:08.137Z,99307.30
2019-06-27T20:11:36.866Z,99299.66
2019-06-27T20:14:05.622Z,99302.17
2019-06-27T20:16:34.371Z,99302.20
2019-06-27T20:19:05.813Z,99303.18
2019-06-27T20:21:33.622Z,99310.50
2019-06-27T20:24:02.376Z,99305.73
2019-06-27T20:26:31.241Z,99295.65
2019-06-27T20:29:00.008Z,99300.22
2019-06-27T20:31:28.899Z,99300.42
2019-06-27T20:33:57.628Z,99297.58
2019-06-27T20:36:26.357Z,99296.81
2019-06-27T20:38:55.241Z,99298.75
2019-06-27T20:41:23.962Z,99293.84
2019-06-27T20:43:52.683Z,99291.66
2019-06-27T20:46:21.503Z,99285.59
2019-06-27T20:48:53.773Z,99294.73
2019-06-27T20:51:20.648Z,99294.00
2019-06-27T20:53:49.582Z,99293.42
2019-06-27T20:56:18.293Z,99295.70
2019-06-27T20:58:47.024Z,99297.05
2019-06-27T21:01:15.803Z,99296.46
2019-06-27T21:03:44.613Z,99301.25
2019-06-27T21:06:13.341Z,99309.25
2019-06-27T21:08:51.294Z,99309.62
2019-06-27T21:11:12.574Z,99305.95
2019-06-27T21:13:41.305Z,99300.29
2019-06-27T21:16:10.074Z,99300.83
2019-06-27T21:18:38.808Z,99297.95
2019-06-27T21:21:07.546Z,99294.89
2019-06-27T21:23:36.438Z,99303.27
2019-06-27T21:26:05.163Z,99309.19
2019-06-27T21:28:33.896Z,99304.81
2019-06-27T21:31:02.777Z,99319.63
2019-06-27T21:33:31.514Z,99318.48
2019-06-27T21:36:00.247Z,99316.97
2019-06-27T21:38:29.209Z,99309.73
2019-06-27T21:40:57.934Z,99301.56
2019-06-27T21:43:26.665Z,99300.23
2019-06-27T21:45:55.458Z,99294.32
2019-06-27T21:48:24.191Z,99290.16
2019-06-27T21:50:52.912Z,99299.13
2019-06-27T21:53:21.686Z,99306.95
2019-06-27T21:55:50.417Z,99306.02
2019-06-27T21:58:19.153Z,99304.67
2019-06-27T22:00:48.631Z,99301.04
2019-06-27T22:03:17.543Z,99299.28
2019-06-27T22:05:46.324Z,99305.18
2019-06-27T22:08:15.359Z,99298.86
2019-06-27T22:10:44.080Z,99280.59
2019-06-27T22:13:12.900Z,99285.56
2019-06-27T22:15:41.797Z,99281.36
2019-06-27T22:18:10.535Z,99276.02
2019-06-27T22:20:39.794Z,99278.66
2019-06-27T22:23:08.699Z,99277.67
2019-06-27T22:25:40.931Z,99270.80
2019-06-27T22:28:07.861Z,99272.67
2019-06-27T22:30:36.725Z,99274.56
2019-06-27T22:33:05.434Z,99274.00
2019-06-27T22:35:34.160Z,99270.33
2019-06-27T22:38:20.779Z,99270.18
2019-06-27T22:41:07.131Z,99270.39
2019-06-27T22:43:53.703Z,99268.05
2019-06-27T22:46:40.071Z,99264.21
2019-06-27T22:49:08.206Z,99268.95
2019-06-27T22:51:48.530Z,99268.00
2019-06-27T22:54:18.898Z,99270.66
2019-06-27T22:56:47.618Z,99259.83
2019-06-27T22:59:16.327Z,99255.07
2019-06-27T23:01:45.130Z,99256.76
2019-06-27T23:04:13.870Z,99256.38
2019-06-27T23:06:42.738Z,99253.30
2019-06-27T23:09:13.331Z,99248.92
2019-06-27T23:11:42.053Z,99242.27
2019-06-27T23:14:10.773Z,99240.72
2019-06-27T23:16:39.557Z,99238.03
2019-06-27T23:19:11.495Z,99232.88
2019-06-27T23:21:38.727Z,99225.42
2019-06-27T23:24:07.611Z,99220.84
2019-06-27T23:26:36.341Z,99221.75
2019-06-27T23:29:05.078Z,99222.13
2019-06-27T23:31:34.055Z,99222.43
2019-06-27T23:34:02.769Z,99229.36
2019-06-27T23:36:31.488Z,99226.30
2019-06-27T23:39:00.350Z,99224.63
2019-06-27T23:41:29.079Z,99229.81
2019-06-27T23:43:57.793Z,99235.38
2019-06-27T23:46:40.512Z,99226.33
2019-06-27T23:49:10.256Z,99227.70
2019-06-27T23:51:38.975Z,99228.12
2019-06-27T23:54:07.972Z,99224.16
2019-06-27T23:56:37.186Z,99223.01
2019-06-27T23:59:06.405Z,99223.01
